TimeEST,TemperatureF,Dew PointF,Humidity,Sea Level PressureIn,VisibilityMPH,Wind Direction,Wind SpeedMPH,Gust SpeedMPH,PrecipitationIn,Events,Conditions,WindDirDegrees,DateUTC
12:15 AM,23.5,23.0,98,29.86,2.0,Calm,Calm,-,N/A,,Scattered Clouds,0,2014-02-14 05:15:00
12:35 AM,24.4,24.1,99,29.86,2.0,Calm,Calm,-,N/A,,Scattered Clouds,0,2014-02-14 05:35:00
12:55 AM,24.1,23.4,97,29.86,5.0,Calm,Calm,-,N/A,,Clear,0,2014-02-14 05:55:00
1:15 AM,25.2,24.6,98,29.87,5.0,Calm,Calm,-,N/A,,Scattered Clouds,0,2014-02-14 06:15:00
1:35 AM,23.9,23.2,97,29.87,5.0,Calm,Calm,-,N/A,,Scattered Clouds,0,2014-02-14 06:35:00
1:55 AM,23.4,22.6,97,29.87,7.0,Calm,Calm,-,N/A,,Scattered Clouds,0,2014-02-14 06:55:00
2:15 AM,22.8,22.1,97,29.87,7.0,Calm,Calm,-,N/A,,Scattered Clouds,0,2014-02-14 07:15:00
2:35 AM,21.9,21.0,96,29.86,7.0,Calm,Calm,-,N/A,,Scattered Clouds,0,2014-02-14 07:35:00
2:55 AM,22.3,21.6,97,29.86,7.0,Calm,Calm,-,N/A,,Scattered Clouds,0,2014-02-14 07:55:00
3:15 AM,23.7,23.0,97,29.85,7.0,Calm,Calm,-,N/A,,Clear,0,2014-02-14 08:15:00
3:35 AM,22.8,21.7,96,29.85,7.0,Calm,Calm,-,N/A,,Clear,0,2014-02-14 08:35:00
3:55 AM,22.3,21.4,96,29.85,7.0,Calm,Calm,-,N/A,,Clear,0,2014-02-14 08:55:00
4:15 AM,23.0,22.6,99,29.85,7.0,Calm,Calm,-,N/A,,Clear,0,2014-02-14 09:15:00
4:35 AM,21.7,21.0,97,29.85,7.0,Calm,Calm,-,N/A,,Clear,0,2014-02-14 09:35:00
4:55 AM,21.7,20.7,96,29.86,7.0,Calm,Calm,-,N/A,,Clear,0,2014-02-14 09:55:00
5:15 AM,20.1,18.7,94,29.86,7.0,Calm,Calm,-,N/A,,Clear,0,2014-02-14 10:15:00
5:35 AM,21.4,20.3,96,29.87,7.0,Calm,Calm,-,N/A,,Clear,0,2014-02-14 10:35:00
5:55 AM,20.5,19.2,95,29.87,7.0,Calm,Calm,-,N/A,,Clear,0,2014-02-14 10:55:00
6:15 AM,21.2,20.3,96,29.87,7.0,Calm,Calm,-,N/A,,Clear,0,2014-02-14 11:15:00
6:35 AM,20.5,19.4,96,29.88,7.0,Calm,Calm,-,N/A,,Clear,0,2014-02-14 11:35:00
6:55 AM,20.7,19.2,94,29.88,7.0,Calm,Calm,-,N/A,,Clear,0,2014-02-14 11:55:00
7:15 AM,19.9,18.7,95,29.88,7.0,Calm,Calm,-,N/A,,Clear,0,2014-02-14 12:15:00
7:35 AM,20.8,19.8,96,29.88,7.0,Calm,Calm,-,N/A,,Clear,0,2014-02-14 12:35:00
7:55 AM,21.2,20.1,96,29.88,7.0,Calm,Calm,-,N/A,,Clear,0,2014-02-14 12:55:00
8:15 AM,21.9,20.8,96,29.88,7.0,Calm,Calm,-,N/A,,Clear,0,2014-02-14 13:15:00
8:35 AM,23.9,23.0,96,29.88,7.0,Calm,Calm,-,N/A,,Clear,0,2014-02-14 13:35:00
8:55 AM,26.1,25.3,97,29.88,5.0,Calm,Calm,-,N/A,,Clear,0,2014-02-14 13:55:00
9:15 AM,27.9,27.1,97,29.88,7.0,Calm,Calm,-,N/A,,Clear,0,2014-02-14 14:15:00
9:35 AM,29.1,28.4,97,29.87,10.0,Calm,Calm,-,N/A,,Clear,0,2014-02-14 14:35:00
9:55 AM,30.6,30.0,98,29.86,7.0,Calm,Calm,-,N/A,,Clear,0,2014-02-14 14:55:00
10:15 AM,32.5,30.4,92,29.87,10.0,Calm,Calm,-,N/A,,Clear,0,2014-02-14 15:15:00
10:35 AM,34.7,30.2,84,29.86,10.0,Calm,Calm,-,N/A,,Clear,0,2014-02-14 15:35:00
10:55 AM,37.8,31.8,79,29.88,10.0,SW,4.6,-,N/A,,Clear,220,2014-02-14 15:55:00
11:15 AM,39.7,31.3,72,29.87,10.0,WSW,3.5,-,N/A,,Clear,250,2014-02-14 16:15:00
11:35 AM,40.3,31.1,70,29.87,10.0,Calm,Calm,-,N/A,,Clear,0,2014-02-14 16:35:00
11:55 AM,42.4,31.8,66,29.85,10.0,Calm,Calm,-,N/A,,Clear,0,2014-02-14 16:55:00
12:15 PM,43.3,31.6,63,29.86,10.0,Calm,Calm,-,N/A,,Clear,0,2014-02-14 17:15:00
12:35 PM,45.0,32.5,62,29.87,10.0,WSW,3.5,-,N/A,,Clear,250,2014-02-14 17:35:00
12:55 PM,46.2,32.7,59,29.84,10.0,Calm,Calm,-,N/A,,Clear,0,2014-02-14 17:55:00
1:15 PM,47.5,33.8,59,29.83,10.0,Calm,Calm,-,N/A,,Clear,0,2014-02-14 18:15:00
1:35 PM,47.8,32.0,54,29.81,10.0,Calm,Calm,-,N/A,,Clear,0,2014-02-14 18:35:00
1:55 PM,48.2,31.3,52,29.80,10.0,SW,5.8,-,N/A,,Clear,230,2014-02-14 18:55:00
2:15 PM,48.9,30.0,48,29.79,10.0,Calm,Calm,-,N/A,,Clear,0,2014-02-14 19:15:00
2:35 PM,50.2,30.9,48,29.77,10.0,WSW,4.6,-,N/A,,Clear,250,2014-02-14 19:35:00
2:55 PM,50.9,32.4,49,29.77,10.0,SW,6.9,-,N/A,,Clear,230,2014-02-14 19:55:00
3:15 PM,50.9,31.6,48,29.77,10.0,WSW,9.2,-,N/A,,Clear,240,2014-02-14 20:15:00
3:35 PM,50.4,31.8,49,29.75,10.0,SW,8.1,-,N/A,,Clear,220,2014-02-14 20:35:00
3:55 PM,49.8,31.6,50,29.76,10.0,WSW,9.2,-,N/A,,Clear,240,2014-02-14 20:55:00
4:15 PM,49.5,33.1,53,29.76,10.0,WSW,4.6,-,N/A,,Clear,250,2014-02-14 21:15:00
4:35 PM,49.1,31.5,51,29.75,10.0,WSW,4.6,-,N/A,,Clear,250,2014-02-14 21:35:00
4:55 PM,49.1,31.1,50,29.74,10.0,SW,9.2,16.1,N/A,,Clear,230,2014-02-14 21:55:00
5:15 PM,48.0,31.6,53,29.74,10.0,WSW,6.9,-,N/A,,Mostly Cloudy,250,2014-02-14 22:15:00
5:35 PM,46.4,32.4,58,29.74,10.0,West,6.9,-,N/A,,Mostly Cloudy,270,2014-02-14 22:35:00
5:55 PM,45.7,31.8,58,29.72,10.0,Calm,Calm,-,N/A,,Mostly Cloudy,0,2014-02-14 22:55:00
6:15 PM,42.8,34.3,72,29.72,10.0,Calm,Calm,-,N/A,,Mostly Cloudy,0,2014-02-14 23:15:00
6:35 PM,41.2,35.4,80,29.72,10.0,Calm,Calm,-,N/A,,Mostly Cloudy,0,2014-02-14 23:35:00
6:55 PM,41.0,34.7,78,29.71,10.0,Calm,Calm,-,N/A,,Overcast,0,2014-02-14 23:55:00
7:15 PM,40.6,33.6,76,29.71,10.0,NNW,3.5,-,N/A,,Overcast,340,2014-02-15 00:15:00
7:35 PM,39.6,34.7,83,29.70,10.0,Calm,Calm,-,N/A,,Overcast,0,2014-02-15 00:35:00
7:55 PM,39.9,34.0,79,29.70,10.0,Calm,Calm,-,N/A,,Mostly Cloudy,0,2014-02-15 00:55:00
8:15 PM,39.4,34.3,82,29.71,10.0,Calm,Calm,-,N/A,,Overcast,0,2014-02-15 01:15:00
8:35 PM,38.8,34.7,85,29.72,10.0,Calm,Calm,-,N/A,,Overcast,0,2014-02-15 01:35:00
8:55 PM,45.3,32.4,61,29.72,10.0,WSW,13.8,26.5,N/A,,Light Drizzle,240,2014-02-15 01:55:00
9:15 PM,42.8,35.2,75,29.72,7.0,WSW,12.7,28.8,N/A,Rain,Light Rain,240,2014-02-15 02:15:00
9:35 PM,41.4,36.7,83,29.70,10.0,West,6.9,-,N/A,Rain,Light Rain,260,2014-02-15 02:35:00
9:55 PM,40.1,37.6,91,29.70,7.0,SW,3.5,-,0.01,Rain,Light Rain,230,2014-02-15 02:55:00
10:15 PM,40.6,37.4,88,29.70,7.0,West,8.1,-,0.01,Rain,Light Rain,260,2014-02-15 03:15:00
10:35 PM,39.7,37.8,93,29.70,7.0,West,4.6,-,0.04,Rain,Rain,270,2014-02-15 03:35:00
10:55 PM,39.2,37.9,95,29.68,5.0,WSW,3.5,-,0.08,Rain,Rain,250,2014-02-15 03:55:00
11:15 PM,38.5,37.4,96,29.67,7.0,WNW,5.8,-,0.02,Rain,Light Rain,290,2014-02-15 04:15:00
11:35 PM,38.3,36.7,94,29.67,10.0,West,4.6,-,0.04,Rain,Light Rain,270,2014-02-15 04:35:00
11:55 PM,37.9,36.5,95,29.67,10.0,Calm,Calm,-,0.06,Rain,Rain,0,2014-02-15 04:55:00